sensor_id;sensor_type;location;lat;lon;timestamp;P1;durP1;ratioP1;P2;durP2;ratioP2
75550;SDS011;65071;53.082;18.218;2023-02-12T00:01:08;4.20;;;1.70;;
75550;SDS011;65071;53.082;18.218;2023-02-12T00:03:36;4.10;;;1.60;;
75550;SDS011;65071;53.082;18.218;2023-02-12T00:06:04;2.40;;;1.40;;
75550;SDS011;65071;53.082;18.218;2023-02-12T00:08:31;5.00;;;1.80;;
75550;SDS011;65071;53.082;18.218;2023-02-12T00:10:58;4.20;;;1.30;;
75550;SDS011;65071;53.082;18.218;2023-02-12T00:13:25;2.70;;;1.50;;
75550;SDS011;65071;53.082;18.218;2023-02-12T00:15:51;2.50;;;1.10;;
75550;SDS011;65071;53.082;18.218;2023-02-12T00:18:18;2.30;;;1.20;;
75550;SDS011;65071;53.082;18.218;2023-02-12T00:20:44;3.10;;;1.10;;
75550;SDS011;65071;53.082;18.218;2023-02-12T00:23:11;3.80;;;1.40;;
75550;SDS011;65071;53.082;18.218;2023-02-12T00:25:39;4.30;;;1.00;;
75550;SDS011;65071;53.082;18.218;2023-02-12T00:28:07;3.60;;;1.60;;
75550;SDS011;65071;53.082;18.218;2023-02-12T00:30:34;4.30;;;1.50;;
75550;SDS011;65071;53.082;18.218;2023-02-12T00:33:01;2.90;;;1.50;;
75550;SDS011;65071;53.082;18.218;2023-02-12T00:35:28;4.90;;;1.60;;
75550;SDS011;65071;53.082;18.218;2023-02-12T00:37:55;3.90;;;1.60;;
75550;SDS011;65071;53.082;18.218;2023-02-12T00:40:21;4.80;;;1.80;;
75550;SDS011;65071;53.082;18.218;2023-02-12T00:42:48;5.20;;;1.60;;
75550;SDS011;65071;53.082;18.218;2023-02-12T00:45:14;4.70;;;1.20;;
75550;SDS011;65071;53.082;18.218;2023-02-12T00:47:41;3.90;;;1.50;;
75550;SDS011;65071;53.082;18.218;2023-02-12T00:50:08;5.50;;;1.80;;
75550;SDS011;65071;53.082;18.218;2023-02-12T00:52:35;4.70;;;1.70;;
75550;SDS011;65071;53.082;18.218;2023-02-12T00:55:02;5.10;;;1.30;;
75550;SDS011;65071;53.082;18.218;2023-02-12T00:57:30;3.30;;;1.60;;
75550;SDS011;65071;53.082;18.218;2023-02-12T00:59:58;3.80;;;1.50;;
75550;SDS011;65071;53.082;18.218;2023-02-12T01:02:25;3.00;;;1.40;;
75550;SDS011;65071;53.082;18.218;2023-02-12T01:04:51;4.20;;;1.70;;
75550;SDS011;65071;53.082;18.218;2023-02-12T01:07:18;3.00;;;1.50;;
75550;SDS011;65071;53.082;18.218;2023-02-12T01:09:45;6.20;;;2.80;;
75550;SDS011;65071;53.082;18.218;2023-02-12T01:12:11;4.00;;;2.50;;
75550;SDS011;65071;53.082;18.218;2023-02-12T01:14:38;7.80;;;3.20;;
75550;SDS011;65071;53.082;18.218;2023-02-12T01:17:06;3.40;;;2.40;;
75550;SDS011;65071;53.082;18.218;2023-02-12T01:19:34;5.10;;;2.20;;
75550;SDS011;65071;53.082;18.218;2023-02-12T01:22:01;4.30;;;2.00;;
75550;SDS011;65071;53.082;18.218;2023-02-12T01:24:27;4.80;;;2.20;;
75550;SDS011;65071;53.082;18.218;2023-02-12T01:26:54;4.20;;;1.90;;
75550;SDS011;65071;53.082;18.218;2023-02-12T01:29:21;3.60;;;2.10;;
75550;SDS011;65071;53.082;18.218;2023-02-12T01:31:47;3.90;;;2.20;;
75550;SDS011;65071;53.082;18.218;2023-02-12T01:34:14;6.40;;;2.20;;
75550;SDS011;65071;53.082;18.218;2023-02-12T01:36:40;5.70;;;2.40;;
75550;SDS011;65071;53.082;18.218;2023-02-12T01:39:07;4.70;;;2.20;;
75550;SDS011;65071;53.082;18.218;2023-02-12T01:41:39;3.80;;;1.70;;
75550;SDS011;65071;53.082;18.218;2023-02-12T01:46:46;3.70;;;1.70;;
75550;SDS011;65071;53.082;18.218;2023-02-12T01:49:17;3.80;;;1.60;;
75550;SDS011;65071;53.082;18.218;2023-02-12T01:51:48;2.80;;;1.90;;
75550;SDS011;65071;53.082;18.218;2023-02-12T01:54:19;5.00;;;2.10;;
75550;SDS011;65071;53.082;18.218;2023-02-12T01:56:48;4.30;;;1.90;;
75550;SDS011;65071;53.082;18.218;2023-02-12T01:59:15;4.50;;;2.00;;
75550;SDS011;65071;53.082;18.218;2023-02-12T02:01:44;4.00;;;1.60;;
75550;SDS011;65071;53.082;18.218;2023-02-12T02:04:12;3.80;;;1.80;;
75550;SDS011;65071;53.082;18.218;2023-02-12T02:09:23;3.10;;;1.80;;
75550;SDS011;65071;53.082;18.218;2023-02-12T02:11:53;4.80;;;1.90;;
75550;SDS011;65071;53.082;18.218;2023-02-12T02:14:38;4.60;;;2.30;;
75550;SDS011;65071;53.082;18.218;2023-02-12T02:17:10;3.90;;;2.00;;
75550;SDS011;65071;53.082;18.218;2023-02-12T02:28:45;5.50;;;2.40;;
75550;SDS011;65071;53.082;18.218;2023-02-12T02:36:49;4.00;;;1.80;;
75550;SDS011;65071;53.082;18.218;2023-02-12T02:41:58;6.50;;;2.80;;
75550;SDS011;65071;53.082;18.218;2023-02-12T02:44:34;6.80;;;3.10;;
75550;SDS011;65071;53.082;18.218;2023-02-12T02:47:14;7.50;;;3.10;;
75550;SDS011;65071;53.082;18.218;2023-02-12T02:49:53;6.50;;;2.50;;
75550;SDS011;65071;53.082;18.218;2023-02-12T02:52:29;4.50;;;2.40;;
75550;SDS011;65071;53.082;18.218;2023-02-12T02:55:02;8.30;;;3.00;;
75550;SDS011;65071;53.082;18.218;2023-02-12T02:57:50;4.90;;;2.30;;
75550;SDS011;65071;53.082;18.218;2023-02-12T03:00:23;4.40;;;2.40;;
75550;SDS011;65071;53.082;18.218;2023-02-12T03:02:59;7.90;;;3.20;;
75550;SDS011;65071;53.082;18.218;2023-02-12T03:05:34;9.20;;;3.40;;
75550;SDS011;65071;53.082;18.218;2023-02-12T03:08:13;9.30;;;4.50;;
75550;SDS011;65071;53.082;18.218;2023-02-12T03:10:46;6.70;;;4.20;;
75550;SDS011;65071;53.082;18.218;2023-02-12T03:13:20;12.90;;;4.00;;
75550;SDS011;65071;53.082;18.218;2023-02-12T03:15:58;12.00;;;5.10;;
75550;SDS011;65071;53.082;18.218;2023-02-12T03:18:31;11.60;;;4.40;;
75550;SDS011;65071;53.082;18.218;2023-02-12T03:21:03;9.80;;;4.60;;
75550;SDS011;65071;53.082;18.218;2023-02-12T03:23:38;10.90;;;4.80;;
75550;SDS011;65071;53.082;18.218;2023-02-12T03:26:15;15.20;;;5.90;;
75550;SDS011;65071;53.082;18.218;2023-02-12T03:28:47;15.00;;;6.60;;
75550;SDS011;65071;53.082;18.218;2023-02-12T03:31:18;13.30;;;5.60;;
75550;SDS011;65071;53.082;18.218;2023-02-12T03:37:15;8.90;;;3.00;;
75550;SDS011;65071;53.082;18.218;2023-02-12T03:42:23;6.80;;;2.80;;
75550;SDS011;65071;53.082;18.218;2023-02-12T03:53:25;7.30;;;2.80;;
75550;SDS011;65071;53.082;18.218;2023-02-12T03:55:53;6.90;;;3.10;;
75550;SDS011;65071;53.082;18.218;2023-02-12T03:58:26;5.10;;;2.70;;
75550;SDS011;65071;53.082;18.218;2023-02-12T04:00:54;8.80;;;4.00;;
75550;SDS011;65071;53.082;18.218;2023-02-12T04:03:22;6.20;;;3.40;;
75550;SDS011;65071;53.082;18.218;2023-02-12T04:05:49;8.50;;;4.20;;
75550;SDS011;65071;53.082;18.218;2023-02-12T04:08:16;5.90;;;3.20;;
75550;SDS011;65071;53.082;18.218;2023-02-12T04:13:32;5.90;;;2.60;;
75550;SDS011;65071;53.082;18.218;2023-02-12T04:16:04;6.00;;;3.00;;
75550;SDS011;65071;53.082;18.218;2023-02-12T04:18:43;6.00;;;2.60;;
75550;SDS011;65071;53.082;18.218;2023-02-12T04:26:46;5.90;;;2.30;;
75550;SDS011;65071;53.082;18.218;2023-02-12T04:32:04;4.20;;;1.90;;
75550;SDS011;65071;53.082;18.218;2023-02-12T04:34:45;5.10;;;1.80;;
75550;SDS011;65071;53.082;18.218;2023-02-12T04:37:17;4.50;;;1.90;;
75550;SDS011;65071;53.082;18.218;2023-02-12T04:39:47;5.00;;;2.30;;
75550;SDS011;65071;53.082;18.218;2023-02-12T04:42:15;3.20;;;1.80;;
75550;SDS011;65071;53.082;18.218;2023-02-12T04:44:42;5.40;;;2.40;;
75550;SDS011;65071;53.082;18.218;2023-02-12T04:47:12;4.70;;;2.30;;
75550;SDS011;65071;53.082;18.218;2023-02-12T04:49:40;5.40;;;2.40;;
75550;SDS011;65071;53.082;18.218;2023-02-12T04:52:07;8.00;;;2.80;;
75550;SDS011;65071;53.082;18.218;2023-02-12T04:54:35;3.20;;;2.40;;
75550;SDS011;65071;53.082;18.218;2023-02-12T04:57:01;6.70;;;2.70;;
75550;SDS011;65071;53.082;18.218;2023-02-12T04:59:29;6.30;;;2.60;;
75550;SDS011;65071;53.082;18.218;2023-02-12T05:01:55;6.00;;;2.70;;
75550;SDS011;65071;53.082;18.218;2023-02-12T05:04:22;4.40;;;2.60;;
75550;SDS011;65071;53.082;18.218;2023-02-12T05:06:48;4.40;;;2.40;;
75550;SDS011;65071;53.082;18.218;2023-02-12T05:09:16;5.60;;;2.70;;
75550;SDS011;65071;53.082;18.218;2023-02-12T05:11:45;5.40;;;2.50;;
75550;SDS011;65071;53.082;18.218;2023-02-12T05:14:11;4.80;;;2.70;;
75550;SDS011;65071;53.082;18.218;2023-02-12T05:16:38;4.10;;;2.40;;
75550;SDS011;65071;53.082;18.218;2023-02-12T05:19:04;4.00;;;2.00;;
75550;SDS011;65071;53.082;18.218;2023-02-12T05:21:31;5.30;;;2.70;;
75550;SDS011;65071;53.082;18.218;2023-02-12T05:23:59;3.70;;;2.30;;
75550;SDS011;65071;53.082;18.218;2023-02-12T05:26:27;6.30;;;2.40;;
75550;SDS011;65071;53.082;18.218;2023-02-12T05:28:54;3.70;;;1.90;;
75550;SDS011;65071;53.082;18.218;2023-02-12T05:31:21;4.30;;;2.10;;
75550;SDS011;65071;53.082;18.218;2023-02-12T05:33:47;5.20;;;2.20;;
75550;SDS011;65071;53.082;18.218;2023-02-12T05:36:17;4.70;;;1.90;;
75550;SDS011;65071;53.082;18.218;2023-02-12T05:38:47;3.70;;;1.90;;
75550;SDS011;65071;53.082;18.218;2023-02-12T05:41:18;3.40;;;1.70;;
75550;SDS011;65071;53.082;18.218;2023-02-12T05:43:46;3.40;;;1.70;;
75550;SDS011;65071;53.082;18.218;2023-02-12T05:46:15;5.30;;;1.90;;
75550;SDS011;65071;53.082;18.218;2023-02-12T05:48:43;4.30;;;2.10;;
75550;SDS011;65071;53.082;18.218;2023-02-12T05:51:15;4.20;;;1.80;;
75550;SDS011;65071;53.082;18.218;2023-02-12T05:53:45;4.40;;;1.90;;
75550;SDS011;65071;53.082;18.218;2023-02-12T05:56:12;4.50;;;2.20;;
75550;SDS011;65071;53.082;18.218;2023-02-12T05:58:40;5.30;;;2.90;;
75550;SDS011;65071;53.082;18.218;2023-02-12T06:01:12;6.80;;;2.80;;
75550;SDS011;65071;53.082;18.218;2023-02-12T06:03:46;5.50;;;2.90;;
75550;SDS011;65071;53.082;18.218;2023-02-12T06:06:13;4.90;;;2.70;;
75550;SDS011;65071;53.082;18.218;2023-02-12T06:08:40;4.80;;;3.00;;
75550;SDS011;65071;53.082;18.218;2023-02-12T06:11:09;5.50;;;2.60;;
75550;SDS011;65071;53.082;18.218;2023-02-12T06:13:38;4.30;;;2.60;;
75550;SDS011;65071;53.082;18.218;2023-02-12T06:16:05;4.70;;;2.40;;
75550;SDS011;65071;53.082;18.218;2023-02-12T06:18:35;4.30;;;2.50;;
75550;SDS011;65071;53.082;18.218;2023-02-12T06:21:02;3.70;;;2.10;;
75550;SDS011;65071;53.082;18.218;2023-02-12T06:23:29;4.50;;;2.50;;
75550;SDS011;65071;53.082;18.218;2023-02-12T06:25:56;3.90;;;2.10;;
75550;SDS011;65071;53.082;18.218;2023-02-12T06:28:23;4.70;;;2.30;;
75550;SDS011;65071;53.082;18.218;2023-02-12T06:30:50;5.70;;;2.60;;
75550;SDS011;65071;53.082;18.218;2023-02-12T06:33:16;6.30;;;2.20;;
75550;SDS011;65071;53.082;18.218;2023-02-12T06:35:43;2.70;;;1.50;;
75550;SDS011;65071;53.082;18.218;2023-02-12T06:38:10;5.10;;;2.20;;
75550;SDS011;65071;53.082;18.218;2023-02-12T06:40:36;3.10;;;1.40;;
75550;SDS011;65071;53.082;18.218;2023-02-12T06:43:03;3.10;;;1.90;;
75550;SDS011;65071;53.082;18.218;2023-02-12T06:45:29;5.10;;;2.30;;
75550;SDS011;65071;53.082;18.218;2023-02-12T06:47:56;5.40;;;2.40;;
75550;SDS011;65071;53.082;18.218;2023-02-12T06:50:23;5.30;;;2.90;;
75550;SDS011;65071;53.082;18.218;2023-02-12T06:52:49;5.10;;;2.20;;
75550;SDS011;65071;53.082;18.218;2023-02-12T06:55:16;3.80;;;1.70;;
75550;SDS011;65071;53.082;18.218;2023-02-12T06:57:43;3.40;;;2.10;;
75550;SDS011;65071;53.082;18.218;2023-02-12T07:00:10;5.50;;;2.20;;
75550;SDS011;65071;53.082;18.218;2023-02-12T07:02:37;3.20;;;1.90;;
75550;SDS011;65071;53.082;18.218;2023-02-12T07:05:04;3.90;;;1.90;;
75550;SDS011;65071;53.082;18.218;2023-02-12T07:07:31;5.50;;;2.00;;
75550;SDS011;65071;53.082;18.218;2023-02-12T07:09:57;3.50;;;2.00;;
75550;SDS011;65071;53.082;18.218;2023-02-12T07:12:24;4.10;;;1.70;;
75550;SDS011;65071;53.082;18.218;2023-02-12T07:14:51;4.50;;;1.80;;
75550;SDS011;65071;53.082;18.218;2023-02-12T07:17:17;4.30;;;1.60;;
75550;SDS011;65071;53.082;18.218;2023-02-12T07:19:44;2.50;;;1.50;;
75550;SDS011;65071;53.082;18.218;2023-02-12T07:22:10;2.70;;;1.70;;
75550;SDS011;65071;53.082;18.218;2023-02-12T07:24:37;3.10;;;1.80;;
75550;SDS011;65071;53.082;18.218;2023-02-12T07:27:04;4.70;;;1.90;;
75550;SDS011;65071;53.082;18.218;2023-02-12T07:29:30;3.60;;;1.70;;
75550;SDS011;65071;53.082;18.218;2023-02-12T07:31:57;3.80;;;1.80;;
75550;SDS011;65071;53.082;18.218;2023-02-12T07:34:24;3.80;;;1.80;;
75550;SDS011;65071;53.082;18.218;2023-02-12T07:36:50;3.40;;;1.50;;
75550;SDS011;65071;53.082;18.218;2023-02-12T07:39:17;3.40;;;1.70;;
75550;SDS011;65071;53.082;18.218;2023-02-12T07:41:43;2.80;;;1.50;;
75550;SDS011;65071;53.082;18.218;2023-02-12T07:44:10;2.90;;;1.70;;
75550;SDS011;65071;53.082;18.218;2023-02-12T07:46:42;4.80;;;2.00;;
75550;SDS011;65071;53.082;18.218;2023-02-12T07:49:20;4.30;;;1.70;;
75550;SDS011;65071;53.082;18.218;2023-02-12T07:51:47;6.10;;;2.70;;
75550;SDS011;65071;53.082;18.218;2023-02-12T07:54:15;3.60;;;2.30;;
75550;SDS011;65071;53.082;18.218;2023-02-12T07:56:42;6.60;;;3.90;;
75550;SDS011;65071;53.082;18.218;2023-02-12T07:59:13;6.10;;;3.30;;
75550;SDS011;65071;53.082;18.218;2023-02-12T08:01:44;6.60;;;3.20;;
75550;SDS011;65071;53.082;18.218;2023-02-12T08:04:13;4.90;;;3.10;;
75550;SDS011;65071;53.082;18.218;2023-02-12T08:06:43;6.30;;;3.00;;
75550;SDS011;65071;53.082;18.218;2023-02-12T08:09:14;4.90;;;3.00;;
75550;SDS011;65071;53.082;18.218;2023-02-12T08:11:45;4.80;;;2.90;;
75550;SDS011;65071;53.082;18.218;2023-02-12T08:14:14;6.30;;;2.70;;
75550;SDS011;65071;53.082;18.218;2023-02-12T08:16:43;4.70;;;2.80;;
75550;SDS011;65071;53.082;18.218;2023-02-12T08:19:11;3.90;;;2.90;;
75550;SDS011;65071;53.082;18.218;2023-02-12T08:21:39;6.10;;;2.40;;
75550;SDS011;65071;53.082;18.218;2023-02-12T08:24:05;5.50;;;2.70;;
75550;SDS011;65071;53.082;18.218;2023-02-12T08:26:33;4.00;;;2.20;;
75550;SDS011;65071;53.082;18.218;2023-02-12T08:31:39;4.60;;;2.50;;
75550;SDS011;65071;53.082;18.218;2023-02-12T08:34:21;7.60;;;3.70;;
75550;SDS011;65071;53.082;18.218;2023-02-12T08:36:50;3.20;;;2.10;;
75550;SDS011;65071;53.082;18.218;2023-02-12T08:39:22;2.70;;;1.70;;
75550;SDS011;65071;53.082;18.218;2023-02-12T08:41:50;2.90;;;1.90;;
75550;SDS011;65071;53.082;18.218;2023-02-12T08:44:19;4.50;;;1.80;;
75550;SDS011;65071;53.082;18.218;2023-02-12T08:46:46;3.80;;;2.40;;
75550;SDS011;65071;53.082;18.218;2023-02-12T08:49:16;4.10;;;2.50;;
75550;SDS011;65071;53.082;18.218;2023-02-12T08:51:47;3.50;;;2.30;;
75550;SDS011;65071;53.082;18.218;2023-02-12T08:54:16;3.30;;;2.50;;
75550;SDS011;65071;53.082;18.218;2023-02-12T08:56:45;4.00;;;2.20;;
75550;SDS011;65071;53.082;18.218;2023-02-12T08:59:12;5.20;;;2.70;;
75550;SDS011;65071;53.082;18.218;2023-02-12T09:01:40;5.30;;;2.90;;
75550;SDS011;65071;53.082;18.218;2023-02-12T09:04:12;6.60;;;3.40;;
75550;SDS011;65071;53.082;18.218;2023-02-12T09:06:44;4.40;;;2.90;;
75550;SDS011;65071;53.082;18.218;2023-02-12T09:09:11;5.00;;;2.80;;
75550;SDS011;65071;53.082;18.218;2023-02-12T09:11:38;7.00;;;3.90;;
75550;SDS011;65071;53.082;18.218;2023-02-12T09:14:06;5.90;;;3.80;;
75550;SDS011;65071;53.082;18.218;2023-02-12T09:16:36;4.80;;;3.00;;
75550;SDS011;65071;53.082;18.218;2023-02-12T09:19:05;4.50;;;3.10;;
75550;SDS011;65071;53.082;18.218;2023-02-12T09:21:33;7.30;;;4.10;;
75550;SDS011;65071;53.082;18.218;2023-02-12T09:24:00;6.00;;;3.60;;
75550;SDS011;65071;53.082;18.218;2023-02-12T09:26:29;6.30;;;4.20;;
75550;SDS011;65071;53.082;18.218;2023-02-12T09:28:56;5.30;;;3.50;;
75550;SDS011;65071;53.082;18.218;2023-02-12T09:31:24;6.90;;;4.00;;
75550;SDS011;65071;53.082;18.218;2023-02-12T09:33:54;6.60;;;3.60;;
75550;SDS011;65071;53.082;18.218;2023-02-12T09:36:24;6.50;;;3.60;;
75550;SDS011;65071;53.082;18.218;2023-02-12T09:38:51;6.90;;;3.70;;
75550;SDS011;65071;53.082;18.218;2023-02-12T09:44:21;5.50;;;3.30;;
75550;SDS011;65071;53.082;18.218;2023-02-12T09:52:28;6.30;;;3.60;;
75550;SDS011;65071;53.082;18.218;2023-02-12T09:54:55;4.20;;;2.30;;
75550;SDS011;65071;53.082;18.218;2023-02-12T09:57:32;5.30;;;3.40;;
75550;SDS011;65071;53.082;18.218;2023-02-12T10:00:03;5.70;;;3.80;;
75550;SDS011;65071;53.082;18.218;2023-02-12T10:02:33;4.70;;;3.00;;
75550;SDS011;65071;53.082;18.218;2023-02-12T10:05:02;5.00;;;2.70;;
75550;SDS011;65071;53.082;18.218;2023-02-12T10:15:58;7.20;;;3.50;;
75550;SDS011;65071;53.082;18.218;2023-02-12T10:18:40;6.80;;;3.40;;
75550;SDS011;65071;53.082;18.218;2023-02-12T10:21:23;5.30;;;3.10;;
75550;SDS011;65071;53.082;18.218;2023-02-12T10:26:49;5.20;;;3.50;;
75550;SDS011;65071;53.082;18.218;2023-02-12T10:29:22;5.50;;;3.10;;
75550;SDS011;65071;53.082;18.218;2023-02-12T10:31:54;8.70;;;3.70;;
75550;SDS011;65071;53.082;18.218;2023-02-12T10:37:44;5.40;;;3.10;;
75550;SDS011;65071;53.082;18.218;2023-02-12T10:39:58;8.90;;;4.20;;
75550;SDS011;65071;53.082;18.218;2023-02-12T10:42:43;6.00;;;3.10;;
75550;SDS011;65071;53.082;18.218;2023-02-12T10:45:12;6.30;;;3.90;;
75550;SDS011;65071;53.082;18.218;2023-02-12T10:47:41;7.30;;;4.00;;
75550;SDS011;65071;53.082;18.218;2023-02-12T10:50:43;8.20;;;4.30;;
75550;SDS011;65071;53.082;18.218;2023-02-12T11:01:32;7.40;;;4.30;;
75550;SDS011;65071;53.082;18.218;2023-02-12T11:04:19;8.80;;;4.50;;
75550;SDS011;65071;53.082;18.218;2023-02-12T11:09:27;5.60;;;3.00;;
75550;SDS011;65071;53.082;18.218;2023-02-12T11:11:55;8.00;;;3.70;;
75550;SDS011;65071;53.082;18.218;2023-02-12T11:14:23;8.80;;;4.50;;
75550;SDS011;65071;53.082;18.218;2023-02-12T11:16:54;7.50;;;4.40;;
75550;SDS011;65071;53.082;18.218;2023-02-12T11:19:24;7.90;;;4.00;;
75550;SDS011;65071;53.082;18.218;2023-02-12T11:22:03;6.50;;;3.70;;
75550;SDS011;65071;53.082;18.218;2023-02-12T11:24:34;7.50;;;3.90;;
75550;SDS011;65071;53.082;18.218;2023-02-12T11:27:10;8.10;;;4.70;;
75550;SDS011;65071;53.082;18.218;2023-02-12T11:30:12;9.90;;;4.80;;
75550;SDS011;65071;53.082;18.218;2023-02-12T11:32:41;8.50;;;4.30;;
75550;SDS011;65071;53.082;18.218;2023-02-12T11:35:13;7.40;;;3.90;;
75550;SDS011;65071;53.082;18.218;2023-02-12T11:37:50;8.40;;;4.00;;
75550;SDS011;65071;53.082;18.218;2023-02-12T11:40:22;6.90;;;4.00;;
75550;SDS011;65071;53.082;18.218;2023-02-12T11:42:55;9.10;;;5.20;;
75550;SDS011;65071;53.082;18.218;2023-02-12T11:45:26;5.50;;;3.20;;
75550;SDS011;65071;53.082;18.218;2023-02-12T11:47:57;7.60;;;4.00;;
75550;SDS011;65071;53.082;18.218;2023-02-12T11:50:25;8.00;;;4.30;;
75550;SDS011;65071;53.082;18.218;2023-02-12T11:55:35;7.10;;;4.20;;
75550;SDS011;65071;53.082;18.218;2023-02-12T11:58:20;6.60;;;4.40;;
75550;SDS011;65071;53.082;18.218;2023-02-12T12:00:57;9.70;;;5.20;;
75550;SDS011;65071;53.082;18.218;2023-02-12T12:06:30;9.90;;;4.50;;
75550;SDS011;65071;53.082;18.218;2023-02-12T12:09:03;6.40;;;3.10;;
75550;SDS011;65071;53.082;18.218;2023-02-12T12:14:25;8.80;;;4.70;;
75550;SDS011;65071;53.082;18.218;2023-02-12T12:17:11;12.10;;;5.40;;
75550;SDS011;65071;53.082;18.218;2023-02-12T12:20:05;6.70;;;3.50;;
75550;SDS011;65071;53.082;18.218;2023-02-12T12:23:01;14.00;;;5.60;;
75550;SDS011;65071;53.082;18.218;2023-02-12T12:25:35;12.00;;;4.50;;
75550;SDS011;65071;53.082;18.218;2023-02-12T12:33:45;7.90;;;3.90;;
75550;SDS011;65071;53.082;18.218;2023-02-12T12:36:22;10.50;;;4.60;;
75550;SDS011;65071;53.082;18.218;2023-02-12T12:42:10;8.20;;;4.90;;
75550;SDS011;65071;53.082;18.218;2023-02-12T12:50:03;15.40;;;5.00;;
75550;SDS011;65071;53.082;18.218;2023-02-12T13:06:29;9.60;;;3.70;;
75550;SDS011;65071;53.082;18.218;2023-02-12T13:12:12;13.60;;;5.50;;
75550;SDS011;65071;53.082;18.218;2023-02-12T13:15:05;9.60;;;3.60;;
75550;SDS011;65071;53.082;18.218;2023-02-12T13:17:46;9.50;;;4.70;;
75550;SDS011;65071;53.082;18.218;2023-02-12T13:23:13;14.50;;;6.70;;
75550;SDS011;65071;53.082;18.218;2023-02-12T13:25:47;13.40;;;5.90;;
75550;SDS011;65071;53.082;18.218;2023-02-12T13:28:43;15.70;;;6.30;;
75550;SDS011;65071;53.082;18.218;2023-02-12T13:31:31;12.90;;;5.00;;
75550;SDS011;65071;53.082;18.218;2023-02-12T13:34:05;11.40;;;4.40;;
75550;SDS011;65071;53.082;18.218;2023-02-12T13:36:37;14.80;;;5.00;;
75550;SDS011;65071;53.082;18.218;2023-02-12T13:52:53;13.10;;;6.00;;
75550;SDS011;65071;53.082;18.218;2023-02-12T13:55:36;16.80;;;6.90;;
75550;SDS011;65071;53.082;18.218;2023-02-12T14:00:58;15.50;;;5.80;;
75550;SDS011;65071;53.082;18.218;2023-02-12T14:03:30;10.40;;;4.90;;
75550;SDS011;65071;53.082;18.218;2023-02-12T14:08:39;18.50;;;6.90;;
75550;SDS011;65071;53.082;18.218;2023-02-12T14:11:09;17.30;;;6.70;;
75550;SDS011;65071;53.082;18.218;2023-02-12T14:16:34;11.50;;;5.80;;
75550;SDS011;65071;53.082;18.218;2023-02-12T14:22:11;12.10;;;6.40;;
75550;SDS011;65071;53.082;18.218;2023-02-12T14:24:46;13.00;;;6.00;;
75550;SDS011;65071;53.082;18.218;2023-02-12T14:27:22;14.50;;;6.10;;
75550;SDS011;65071;53.082;18.218;2023-02-12T14:35:38;11.50;;;5.10;;
75550;SDS011;65071;53.082;18.218;2023-02-12T14:40:43;9.90;;;5.40;;
75550;SDS011;65071;53.082;18.218;2023-02-12T14:45:52;11.80;;;5.60;;
75550;SDS011;65071;53.082;18.218;2023-02-12T14:53:52;9.70;;;4.00;;
75550;SDS011;65071;53.082;18.218;2023-02-12T14:56:21;10.80;;;3.80;;
75550;SDS011;65071;53.082;18.218;2023-02-12T14:59:01;8.40;;;3.70;;
75550;SDS011;65071;53.082;18.218;2023-02-12T15:01:32;12.40;;;4.40;;
75550;SDS011;65071;53.082;18.218;2023-02-12T15:04:10;11.00;;;4.50;;
75550;SDS011;65071;53.082;18.218;2023-02-12T15:07:08;9.90;;;4.00;;
75550;SDS011;65071;53.082;18.218;2023-02-12T15:09:43;9.80;;;4.50;;
75550;SDS011;65071;53.082;18.218;2023-02-12T15:15:12;7.80;;;3.20;;
75550;SDS011;65071;53.082;18.218;2023-02-12T15:20:53;8.70;;;3.30;;
75550;SDS011;65071;53.082;18.218;2023-02-12T15:23:33;10.00;;;3.20;;
75550;SDS011;65071;53.082;18.218;2023-02-12T15:26:04;10.00;;;3.20;;
75550;SDS011;65071;53.082;18.218;2023-02-12T15:28:35;7.90;;;3.00;;
75550;SDS011;65071;53.082;18.218;2023-02-12T15:31:04;8.30;;;3.40;;
75550;SDS011;65071;53.082;18.218;2023-02-12T15:33:37;6.50;;;2.80;;
75550;SDS011;65071;53.082;18.218;2023-02-12T15:36:07;7.90;;;2.80;;
75550;SDS011;65071;53.082;18.218;2023-02-12T15:38:39;9.30;;;3.30;;
75550;SDS011;65071;53.082;18.218;2023-02-12T15:41:07;10.90;;;3.00;;
75550;SDS011;65071;53.082;18.218;2023-02-12T15:43:38;9.20;;;2.70;;
75550;SDS011;65071;53.082;18.218;2023-02-12T15:46:12;10.30;;;3.00;;
75550;SDS011;65071;53.082;18.218;2023-02-12T15:48:42;4.90;;;1.90;;
75550;SDS011;65071;53.082;18.218;2023-02-12T15:51:28;9.00;;;2.20;;
75550;SDS011;65071;53.082;18.218;2023-02-12T15:54:00;9.30;;;2.60;;
75550;SDS011;65071;53.082;18.218;2023-02-12T15:56:31;8.70;;;3.00;;
75550;SDS011;65071;53.082;18.218;2023-02-12T15:58:59;6.20;;;2.70;;
75550;SDS011;65071;53.082;18.218;2023-02-12T16:01:31;8.00;;;2.70;;
75550;SDS011;65071;53.082;18.218;2023-02-12T16:04:01;7.70;;;2.90;;
75550;SDS011;65071;53.082;18.218;2023-02-12T16:06:30;8.30;;;3.40;;
75550;SDS011;65071;53.082;18.218;2023-02-12T16:09:07;11.00;;;2.80;;
75550;SDS011;65071;53.082;18.218;2023-02-12T16:11:46;11.00;;;3.10;;
75550;SDS011;65071;53.082;18.218;2023-02-12T16:14:27;7.20;;;3.00;;
75550;SDS011;65071;53.082;18.218;2023-02-12T16:17:21;11.00;;;2.70;;
75550;SDS011;65071;53.082;18.218;2023-02-12T16:19:54;7.60;;;3.00;;
75550;SDS011;65071;53.082;18.218;2023-02-12T16:22:27;9.80;;;3.10;;
75550;SDS011;65071;53.082;18.218;2023-02-12T16:24:54;9.80;;;2.60;;
75550;SDS011;65071;53.082;18.218;2023-02-12T16:27:26;10.00;;;3.40;;
75550;SDS011;65071;53.082;18.218;2023-02-12T16:30:03;7.70;;;3.00;;
75550;SDS011;65071;53.082;18.218;2023-02-12T16:32:49;12.20;;;3.60;;
75550;SDS011;65071;53.082;18.218;2023-02-12T16:37:44;9.30;;;3.70;;
75550;SDS011;65071;53.082;18.218;2023-02-12T16:47:50;10.90;;;2.90;;
75550;SDS011;65071;53.082;18.218;2023-02-12T16:50:17;8.80;;;2.90;;
75550;SDS011;65071;53.082;18.218;2023-02-12T16:52:48;8.10;;;2.80;;
75550;SDS011;65071;53.082;18.218;2023-02-12T16:55:16;13.50;;;3.40;;
75550;SDS011;65071;53.082;18.218;2023-02-12T16:57:43;9.30;;;3.00;;
75550;SDS011;65071;53.082;18.218;2023-02-12T17:00:11;7.50;;;2.60;;
75550;SDS011;65071;53.082;18.218;2023-02-12T17:02:42;7.30;;;2.80;;
75550;SDS011;65071;53.082;18.218;2023-02-12T17:05:09;10.10;;;2.50;;
75550;SDS011;65071;53.082;18.218;2023-02-12T17:07:36;10.50;;;3.10;;
75550;SDS011;65071;53.082;18.218;2023-02-12T17:10:02;8.30;;;2.70;;
75550;SDS011;65071;53.082;18.218;2023-02-12T17:12:29;8.30;;;2.60;;
75550;SDS011;65071;53.082;18.218;2023-02-12T17:14:56;11.40;;;3.40;;
75550;SDS011;65071;53.082;18.218;2023-02-12T17:17:23;10.80;;;3.40;;
75550;SDS011;65071;53.082;18.218;2023-02-12T17:19:49;9.80;;;3.00;;
75550;SDS011;65071;53.082;18.218;2023-02-12T17:22:19;8.40;;;2.80;;
75550;SDS011;65071;53.082;18.218;2023-02-12T17:24:48;10.50;;;3.10;;
75550;SDS011;65071;53.082;18.218;2023-02-12T17:27:17;10.60;;;4.10;;
75550;SDS011;65071;53.082;18.218;2023-02-12T17:29:44;8.90;;;3.40;;
75550;SDS011;65071;53.082;18.218;2023-02-12T17:32:11;7.10;;;2.70;;
75550;SDS011;65071;53.082;18.218;2023-02-12T17:34:37;11.10;;;3.30;;
75550;SDS011;65071;53.082;18.218;2023-02-12T17:37:04;14.70;;;3.70;;
75550;SDS011;65071;53.082;18.218;2023-02-12T17:39:31;8.70;;;3.00;;
75550;SDS011;65071;53.082;18.218;2023-02-12T17:41:58;11.30;;;3.40;;
75550;SDS011;65071;53.082;18.218;2023-02-12T17:44:27;14.80;;;3.20;;
75550;SDS011;65071;53.082;18.218;2023-02-12T17:46:53;12.50;;;3.40;;
75550;SDS011;65071;53.082;18.218;2023-02-12T17:49:20;14.90;;;4.70;;
75550;SDS011;65071;53.082;18.218;2023-02-12T17:51:46;14.20;;;3.50;;
75550;SDS011;65071;53.082;18.218;2023-02-12T17:54:13;9.00;;;3.00;;
75550;SDS011;65071;53.082;18.218;2023-02-12T17:56:42;13.10;;;3.90;;
75550;SDS011;65071;53.082;18.218;2023-02-12T17:59:09;8.00;;;3.10;;